Ana Sayfa
METAR-TAF:

METAR-TAF

Havaalanları :

Newnan-Coweta County Airport

Newnan, Georgia, Amerika Birleşik Devletleri

Enlem: 33-18-44N, Boylam: 084-46-13W, yükseklik: 296 m

Güncel hava durumu gözlemi

Rapor saat 18:55 UTC de 25 dakika önce yapıldı.
Rüzgar batı/kuzeybatıdan 4 kt
Sıcaklık 34°C
Nem 20%
Basınç 1016 hPa
Görüş mesafesi: 16.1 km
Açık gökyüzü

METAR: KCCO 251855Z AUTO 29004KT 10SM CLR 34/08 A3001 RMK AO2 T03400083

Saat: 15:20 (19:20 UTC)


TAF: eksik

4.000'den fazla havaalanı için hava durumu gözlemleri ve tahminleri (METAR ve TAF raporları).

Kullanılabilir istasyonlar harita üzerinde sarı ve kırmızı noktalarla gösterilir.

İstasyonun adını görmek için fareyi noktanın üzerinde gezdirin.

Sonrasında hava gözlem ve tahminlerini görmek için tıklayın.

Haritayı değiştirmek için: yaklaştırmak için siyah artı işaretli yeşil düğmeye ve uzaklaştırmak için de eksi işaretli düğmeye hızla tıklayın; bitişik haritalar için yeşil okları kullanın.


METAR-TAF: